Time;durP1;ratioP1;P1;durP2;ratioP2;P2;SDS_P1;SDS_P2;PMS_P1;PMS_P2;Temp;Humidity;BMP_temperature;BMP_pressure;BME280_temperature;BME280_humidity;BME280_pressure;Samples;Min_cycle;Max_cycle;Signal;HPM_P1;HPM_P2
2022/04/15 06:25:32;;;;;;;10.20;8.00;;;;;;;12.10;67.27;99659.94;2616994;47;20072;-67
2022/04/15 06:28:01;;;;;;;13.48;10.68;;;;;;;12.22;67.00;99664.81;2617887;54;20038;-66
2022/04/15 06:30:31;;;;;;;10.35;8.80;;;;;;;12.36;66.65;99662.16;2618788;54;20090;-67
2022/04/15 06:33:01;;;;;;;10.23;7.90;;;;;;;12.46;66.76;99666.38;2621512;54;20034;-67
2022/04/15 06:35:31;;;;;;;12.02;9.73;;;;;;;12.63;66.49;99667.81;2621706;39;20130;-67
2022/04/15 12:38:11;;;;;;;11.93;9.05;;;;;;;21.03;34.17;99628.88;2357136;54;142949490;31
2022/04/15 12:40:45;;;;;;;4.68;2.58;;;;;;;20.84;34.53;99627.44;2620021;47;20254;-65
2022/04/15 12:43:16;;;;;;;3.28;1.80;;;;;;;20.79;34.74;99632.72;2620538;54;20034;-65
2022/04/15 12:45:50;;;;;;;3.33;1.80;;;;;;;20.67;34.97;99630.06;2620302;54;20035;-65
2022/04/15 12:48:20;;;;;;;4.68;2.50;;;;;;;20.71;35.33;99623.16;2619743;39;20435;-66
2022/04/15 12:50:58;;;;;;;3.55;2.00;;;;;;;20.57;34.81;99626.34;2620343;54;20043;-65
2022/04/15 12:53:30;;;;;;;3.35;1.67;;;;;;;20.35;35.20;99616.22;2619100;47;20033;-64
2022/04/15 12:56:13;;;;;;;2.83;1.77;;;;;;;20.47;35.33;99627.75;2618746;54;20037;-64
2022/04/15 12:58:54;;;;;;;2.55;2.35;;;;;;;20.73;34.94;99625.59;2618364;46;20050;-64
2022/04/15 13:01:24;;;;;;;4.88;4.05;;;;;;;20.88;34.10;99622.41;2619263;54;20035;-65
2022/04/15 13:03:55;;;;;;;3.25;1.80;;;;;;;20.81;33.75;99621.72;2619851;54;20551;-65
2022/04/15 13:06:25;;;;;;;2.55;1.42;;;;;;;20.70;33.96;99618.06;2620313;54;20030;-66
2022/04/15 13:08:57;;;;;;;2.13;1.42;;;;;;;20.75;33.82;99621.63;2619856;54;20034;-64
2022/04/15 13:11:28;;;;;;;3.45;1.13;;;;;;;20.67;33.84;99615.84;2619892;54;20034;-64
2022/04/15 13:13:58;;;;;;;3.13;1.40;;;;;;;20.63;34.06;99606.63;2620609;54;20041;-63
2022/04/15 13:16:27;;;;;;;2.08;1.52;;;;;;;20.64;34.17;99609.06;2619806;47;20037;-64
2022/04/15 13:18:57;;;;;;;3.40;1.83;;;;;;;20.61;34.13;99600.66;2618551;51;20062;-65
2022/04/15 13:21:27;;;;;;;1.30;1.20;;;;;;;20.57;34.22;99608.38;2618471;47;20031;-65
2022/04/15 13:24:00;;;;;;;1.85;1.58;;;;;;;20.66;34.28;99603.47;2618397;54;20030;-66
2022/04/15 13:26:30;;;;;;;2.20;1.13;;;;;;;20.61;33.99;99600.66;2618657;47;20026;-65
2022/04/15 13:29:00;;;;;;;1.60;0.98;;;;;;;20.63;33.76;99594.00;2618632;39;20458;-64
2022/04/15 13:31:30;;;;;;;1.65;0.90;;;;;;;20.51;34.11;99596.72;2618701;54;20034;-64
2022/04/15 13:33:59;;;;;;;3.08;1.08;;;;;;;20.34;34.20;99595.81;2619048;39;20506;-64
2022/04/15 13:36:29;;;;;;;1.30;1.20;;;;;;;20.34;34.44;99589.63;2618082;54;20034;-65
2022/04/15 13:39:02;;;;;;;1.77;1.23;;;;;;;20.38;34.64;99593.47;2617535;54;20041;-64
2022/04/15 13:41:33;;;;;;;;;;;;;;;20.40;34.28;99600.22;2618967;54;20129;-64
2022/04/15 13:44:03;;;;;;;1.95;1.00;;;;;;;20.30;34.30;99600.00;2620829;54;19946;-65
2022/04/15 13:46:32;;;;;;;2.38;0.90;;;;;;;20.32;34.62;99600.56;2618958;54;20033;-66
2022/04/15 13:49:02;;;;;;;5.75;4.43;;;;;;;20.22;34.26;99606.56;2618531;54;20034;-64
2022/04/15 13:51:33;;;;;;;6.22;2.53;;;;;;;20.14;34.53;99601.56;2619552;39;20403;-64
2022/04/15 13:56:47;;;;;;;1.60;0.88;;;;;;;20.20;34.34;99607.84;2619711;39;20415;-66
2022/04/15 13:59:17;;;;;;;10.43;1.25;;;;;;;20.35;34.08;99596.63;2619012;54;20640;-64
2022/04/15 14:01:47;;;;;;;1.13;1.00;;;;;;;20.40;33.36;99588.66;2619644;54;20035;-64
2022/04/15 14:04:18;;;;;;;2.28;1.23;;;;;;;20.48;34.19;99597.19;2619007;54;20023;-65
2022/04/15 14:06:49;;;;;;;5.22;4.07;;;;;;;20.65;33.94;99597.25;2619383;54;20043;-64
2022/04/15 14:09:23;;;;;;;1.33;0.90;;;;;;;20.32;34.33;99599.75;2619437;54;20030;-64
2022/04/15 14:11:53;;;;;;;2.15;0.88;;;;;;;20.21;33.91;99594.19;2619060;47;20053;-64
2022/04/15 14:14:23;;;;;;;1.00;0.85;;;;;;;20.27;33.39;99603.16;2619556;54;20558;-64
2022/04/15 14:16:52;;;;;;;1.33;0.82;;;;;;;20.39;33.27;99598.59;2619124;39;20439;-65
2022/04/15 14:19:22;;;;;;;1.83;1.00;;;;;;;20.46;32.68;99604.66;2618998;54;20037;-65
2022/04/15 14:21:52;;;;;;;0.60;0.60;;;;;;;20.40;32.66;99602.09;2619339;54;20031;-67
2022/04/15 14:24:24;;;;;;;1.73;0.95;;;;;;;20.36;32.75;99603.59;2618687;54;20022;-67
2022/04/15 14:26:54;;;;;;;1.52;0.90;;;;;;;20.20;33.18;99600.59;2618423;54;20038;-67
2022/04/15 14:29:23;;;;;;;1.02;0.90;;;;;;;20.28;33.10;99600.22;2618635;54;20041;-67
2022/04/15 14:31:53;;;;;;;2.53;1.45;;;;;;;20.39;33.52;99598.59;2619052;54;20038;-66
2022/04/15 14:34:23;;;;;;;0.88;0.60;;;;;;;20.40;33.59;99596.72;2619253;54;20038;-64
2022/04/15 14:36:53;;;;;;;1.08;0.85;;;;;;;20.46;33.27;99599.28;2618027;54;20034;-63
2022/04/15 14:39:25;;;;;;;1.60;0.90;;;;;;;20.66;33.27;99595.41;2618329;54;20585;-65
2022/04/15 14:41:55;;;;;;;1.97;0.90;;;;;;;20.48;33.47;99597.19;2619095;54;20038;-65
2022/04/15 14:44:25;;;;;;;1.02;0.82;;;;;;;20.66;33.32;99592.72;2619032;54;20043;-64
2022/04/15 14:47:00;;;;;;;1.50;0.80;;;;;;;20.89;33.30;99589.91;2618446;54;20034;-66
2022/04/15 14:49:30;;;;;;;1.60;1.00;;;;;;;20.97;33.05;99591.41;2619099;54;20034;-67
2022/04/15 14:52:00;;;;;;;2.83;1.10;;;;;;;21.12;33.30;99589.00;2619112;54;20038;-64
2022/04/15 14:54:33;;;;;;;2.33;1.20;;;;;;;21.30;32.99;99581.75;2618602;54;20042;-66
2022/04/15 14:57:04;;;;;;;2.92;1.25;;;;;;;21.17;32.92;99590.94;2618370;54;20030;-64
2022/04/15 14:59:34;;;;;;;2.88;1.30;;;;;;;20.95;32.84;99585.47;2618454;54;20038;-64
2022/04/15 15:02:03;;;;;;;1.88;1.08;;;;;;;20.66;33.40;99585.47;2618813;39;20443;-65
2022/04/15 15:04:33;;;;;;;2.15;1.27;;;;;;;20.40;33.89;99588.66;2618993;39;20428;-65
2022/04/15 15:07:20;;;;;;;3.05;1.00;;;;;;;20.22;34.04;99586.97;2618276;54;20037;-65
2022/04/15 15:09:53;;;;;;;1.45;1.13;;;;;;;20.06;33.85;99588.50;2620039;47;20045;-65
2022/04/15 15:12:23;;;;;;;1.25;0.90;;;;;;;20.04;33.78;99590.59;2621269;39;20425;-65
2022/04/15 15:14:54;;;;;;;2.13;1.10;;;;;;;20.05;34.18;99589.56;2619302;54;20041;-65
2022/04/15 15:17:24;;;;;;;2.42;1.50;;;;;;;20.16;33.70;99594.06;2618598;54;20031;-65
2022/04/15 15:19:54;;;;;;;1.45;1.33;;;;;;;20.11;33.94;99587.78;2619493;39;20482;-66
2022/04/15 15:22:25;;;;;;;3.03;1.42;;;;;;;20.28;33.62;99581.44;2619980;54;20039;-66
2022/04/15 15:30:26;;;;;;;2.80;1.90;;;;;;;20.59;33.34;99571.34;2619625;54;20026;-66
2022/04/15 15:32:56;;;;;;;5.43;1.90;;;;;;;20.64;33.17;99576.00;2620468;47;20031;-66
2022/04/15 15:35:26;;;;;;;3.95;2.60;;;;;;;20.36;33.13;99569.50;2619337;51;20547;-65
2022/04/15 15:37:55;;;;;;;2.70;1.83;;;;;;;20.25;32.96;99579.25;2621419;54;20551;-66
2022/04/15 15:40:28;;;;;;;4.57;2.47;;;;;;;20.48;33.07;99578.38;2624075;54;20061;-65
2022/04/15 15:42:57;;;;;;;1.85;1.75;;;;;;;20.61;33.30;99571.91;2624692;54;20022;-67
2022/04/15 15:45:30;;;;;;;3.08;2.20;;;;;;;20.77;33.39;99573.84;2625180;54;20106;-67
2022/04/15 15:48:00;;;;;;;3.10;2.75;;;;;;;20.77;33.59;99576.53;2624251;54;20042;-67
2022/04/15 15:50:30;;;;;;;2.30;2.10;;;;;;;20.70;33.47;99575.88;2622827;47;20027;-67
2022/04/15 15:52:59;;;;;;;3.45;2.40;;;;;;;20.75;33.69;99578.66;2621982;54;20042;-67
2022/04/15 15:55:31;;;;;;;2.75;2.53;;;;;;;20.66;33.65;99580.09;2620733;51;20034;-66
2022/04/15 15:58:01;;;;;;;4.80;3.00;;;;;;;20.81;33.59;99579.53;2619085;47;20086;-65
2022/04/15 16:00:30;;;;;;;4.57;2.97;;;;;;;20.74;33.39;99582.41;2619276;54;20042;-66
2022/04/15 16:03:01;;;;;;;5.15;4.03;;;;;;;20.84;33.41;99575.56;2619185;54;20026;-67
2022/04/15 16:05:32;;;;;;;39.25;31.77;;;;;;;20.70;33.54;99581.25;2618858;54;20030;-66
2022/04/15 16:08:01;;;;;;;3.63;2.75;;;;;;;20.74;33.28;99585.09;2617777;54;20561;-66
2022/04/15 16:10:34;;;;;;;3.55;3.22;;;;;;;20.65;32.92;99577.63;2620015;54;20154;-64
2022/04/15 16:13:06;;;;;;;4.97;3.00;;;;;;;20.84;33.22;99583.63;2623173;54;20034;-64
2022/04/15 16:15:37;;;;;;;3.80;3.15;;;;;;;20.73;33.11;99571.88;2622946;47;20040;-66
2022/04/15 16:18:07;;;;;;;3.35;3.05;;;;;;;20.64;33.08;99586.75;2622325;39;20431;-65
2022/04/15 16:20:37;;;;;;;3.50;3.10;;;;;;;20.71;33.39;99582.06;2619614;39;20438;-66
2022/04/15 16:23:07;;;;;;;4.90;4.10;;;;;;;20.54;32.85;99587.38;2619652;54;20031;-67
2022/04/15 16:25:39;;;;;;;4.88;3.92;;;;;;;20.66;33.00;99577.41;2618899;47;20030;-66
2022/04/15 16:28:11;;;;;;;4.05;3.75;;;;;;;20.71;33.03;99574.81;2618698;54;20027;-65
2022/04/15 16:30:41;;;;;;;5.15;4.65;;;;;;;20.71;32.58;99585.56;2619213;54;20075;-65
2022/04/15 16:33:11;;;;;;;5.13;4.63;;;;;;;20.53;32.85;99586.56;2618503;47;20045;-64
2022/04/15 16:35:42;;;;;;;5.40;4.90;;;;;;;20.67;32.58;99581.72;2618726;54;20026;-64
2022/04/15 16:38:11;;;;;;;5.82;5.32;;;;;;;20.77;32.47;99576.53;2617851;54;20027;-65
2022/04/15 16:40:45;;;;;;;7.60;6.53;;;;;;;20.86;32.41;99593.09;2617977;54;20450;-65
2022/04/15 16:43:15;;;;;;;7.63;6.95;;;;;;;20.67;32.30;99591.66;2619075;54;20038;-65
2022/04/15 16:45:44;;;;;;;7.68;7.07;;;;;;;20.74;32.44;99590.47;2619567;54;20057;-66
2022/04/15 16:48:14;;;;;;;8.70;7.93;;;;;;;20.51;32.50;99593.22;2618088;54;20038;-64
2022/04/15 16:50:44;;;;;;;8.00;7.35;;;;;;;20.52;32.53;99597.53;2618770;54;20027;-66
2022/04/15 16:53:14;;;;;;;7.13;6.43;;;;;;;20.28;33.11;99594.06;2619459;54;20034;-65
2022/04/15 16:58:40;;;;;;;7.20;6.60;;;;;;;20.46;32.20;99591.22;2618487;54;20042;-64
2022/04/15 17:01:12;;;;;;;7.78;7.00;;;;;;;20.48;32.15;99591.81;2618585;54;20037;-65
2022/04/15 17:03:43;;;;;;;7.50;6.80;;;;;;;20.15;32.51;99597.00;2619564;39;20435;-66
2022/04/15 17:06:13;;;;;;;7.00;6.30;;;;;;;20.02;32.60;99593.50;2618897;54;20087;-66
2022/04/15 17:08:43;;;;;;;7.70;6.97;;;;;;;20.14;32.55;99606.91;2618416;54;20035;-65
2022/04/15 17:11:15;;;;;;;6.43;5.82;;;;;;;20.04;33.06;99604.84;2617937;51;20034;-66
2022/04/15 17:13:48;;;;;;;8.40;5.53;;;;;;;20.09;32.67;99600.63;2618652;54;20127;-65
2022/04/15 17:16:18;;;;;;;7.00;6.30;;;;;;;20.01;32.94;99604.50;2618840;54;20037;-65
2022/04/15 17:18:48;;;;;;;6.10;5.57;;;;;;;20.16;32.51;99604.00;2617392;47;20118;-64
2022/04/15 17:21:18;;;;;;;6.30;5.80;;;;;;;20.22;32.40;99605.75;2618579;54;20034;-65
2022/04/15 17:23:47;;;;;;;7.10;6.50;;;;;;;20.04;33.12;99606.69;2619075;54;20038;-66
2022/04/15 17:26:21;;;;;;;8.02;7.05;;;;;;;19.65;33.97;99614.41;2618826;46;20042;-66
2022/04/15 17:28:53;;;;;;;6.75;6.10;;;;;;;19.54;34.82;99612.47;2619230;54;20037;-65
2022/04/15 17:31:23;;;;;;;7.32;6.47;;;;;;;19.42;35.23;99614.31;2620008;54;20046;-65
2022/04/15 17:33:53;;;;;;;6.70;5.88;;;;;;;19.48;34.96;99614.22;2619811;39;20464;-64
2022/04/15 17:36:23;;;;;;;6.93;5.90;;;;;;;19.59;35.44;99615.28;2620616;39;20408;-65
2022/04/15 17:38:52;;;;;;;7.25;6.20;;;;;;;19.25;35.57;99623.03;2619522;54;20044;-63
2022/04/15 17:41:25;;;;;;;7.70;6.47;;;;;;;19.00;36.48;99625.06;2619850;46;20054;-65
2022/04/15 17:43:54;;;;;;;7.38;5.88;;;;;;;18.44;37.16;99629.63;2619822;54;20038;-65
2022/04/15 17:46:24;;;;;;;7.18;5.90;;;;;;;18.11;37.67;99630.00;2619570;54;20034;-65
2022/04/15 17:48:54;;;;;;;6.45;5.60;;;;;;;17.95;38.08;99631.38;2620590;54;20047;-65
2022/04/15 17:51:23;;;;;;;7.10;5.80;;;;;;;17.85;38.58;99643.63;2621686;54;20026;-64
2022/04/15 17:53:53;;;;;;;7.63;5.95;;;;;;;17.78;38.16;99633.78;2621449;54;20027;-64
2022/04/15 17:56:25;;;;;;;9.20;5.88;;;;;;;17.63;38.69;99638.63;2620156;54;20045;-64
2022/04/15 17:58:56;;;;;;;7.57;5.65;;;;;;;17.54;39.07;99639.94;2620244;54;20045;-64
2022/04/15 18:01:25;;;;;;;9.70;7.03;;;;;;;17.41;39.20;99642.69;2619705;54;20026;-64
2022/04/15 18:03:56;;;;;;;7.03;5.30;;;;;;;17.38;39.28;99648.47;2620118;54;20074;-64
2022/04/15 18:06:26;;;;;;;7.35;5.93;;;;;;;17.24;39.57;99658.44;2619962;54;20031;-65
2022/04/15 18:08:56;;;;;;;9.00;6.20;;;;;;;17.21;40.09;99656.19;2619825;54;20031;-68
2022/04/15 18:11:28;;;;;;;8.50;6.40;;;;;;;17.19;39.75;99664.44;2620162;54;20033;-67
2022/04/15 18:13:59;;;;;;;9.45;6.80;;;;;;;17.06;40.50;99661.81;2619712;47;20033;-65
2022/04/15 18:16:29;;;;;;;8.93;6.63;;;;;;;16.90;40.99;99665.81;2620086;54;20046;-67
2022/04/15 18:18:59;;;;;;;10.73;6.72;;;;;;;16.69;41.00;99674.06;2619037;54;20031;-66
2022/04/15 18:21:29;;;;;;;9.23;6.82;;;;;;;16.66;41.57;99675.31;2619910;54;20034;-64
2022/04/15 18:23:58;;;;;;;10.00;8.18;;;;;;;16.48;42.10;99677.84;2620586;54;20030;-64
2022/04/15 18:26:30;;;;;;;9.82;7.25;;;;;;;16.48;41.86;99680.50;2619574;54;20027;-66
2022/04/15 18:29:01;;;;;;;9.77;7.35;;;;;;;16.40;42.45;99680.72;2620269;39;20418;-64
2022/04/15 18:31:31;;;;;;;8.68;6.88;;;;;;;16.28;42.51;99677.88;2619285;54;20026;-67
2022/04/15 18:34:01;;;;;;;9.77;6.90;;;;;;;16.24;42.57;99684.66;2619985;54;20034;-67
2022/04/15 18:36:33;;;;;;;9.52;6.85;;;;;;;16.05;43.08;99689.00;2620655;54;20031;-64
2022/04/15 18:39:03;;;;;;;13.00;7.10;;;;;;;15.93;43.84;99685.31;2620738;54;20036;-64
2022/04/15 18:41:37;;;;;;;10.32;7.22;;;;;;;15.86;44.23;99685.31;2620759;54;20071;-67
2022/04/15 18:44:09;;;;;;;10.85;7.90;;;;;;;15.77;44.29;99692.69;2619626;54;20030;-64
2022/04/15 18:46:58;;;;;;;9.35;6.57;;;;;;;15.74;44.40;99698.44;2619700;54;20026;-66
2022/04/15 18:55:01;;;;;;;11.50;7.82;;;;;;;15.64;45.13;99713.16;2619099;51;20030;-64
2022/04/15 18:57:34;;;;;;;8.77;7.15;;;;;;;15.58;45.24;99717.44;2619199;47;20027;-66
2022/04/15 19:00:08;;;;;;;10.85;7.53;;;;;;;15.48;46.16;99720.50;2619954;54;20045;-64
2022/04/15 19:02:37;;;;;;;;;;;;;;;15.38;46.59;99729.91;2620003;54;20034;-65
2022/04/15 19:05:09;;;;;;;6.57;5.38;;;;;;;15.20;47.78;99733.97;2619708;39;20342;-64
2022/04/15 19:07:40;;;;;;;16.90;11.35;;;;;;;14.90;49.11;99749.41;2619314;47;20034;-63
2022/04/15 19:10:11;;;;;;;5.50;4.72;;;;;;;14.70;49.47;99754.63;2620121;54;20038;-65
2022/04/15 19:12:43;;;;;;;6.63;5.20;;;;;;;14.54;50.31;99761.06;2620891;54;20546;-66
2022/04/15 19:15:13;;;;;;;5.82;5.05;;;;;;;14.40;50.65;99766.47;2618899;47;20037;-65
2022/04/15 19:17:43;;;;;;;5.18;4.40;;;;;;;14.26;51.01;99776.19;2619457;54;20076;-67
2022/04/15 19:20:13;;;;;;;5.65;5.13;;;;;;;14.20;51.53;99769.78;2619093;47;20038;-65
2022/04/15 19:22:43;;;;;;;4.75;4.20;;;;;;;14.05;52.24;99788.50;2621627;54;20062;-66
2022/04/15 19:25:13;;;;;;;5.13;4.65;;;;;;;13.87;51.78;99783.59;2621670;54;20041;-64
2022/04/15 19:27:48;;;;;;;6.30;4.30;;;;;;;13.72;52.04;99790.84;2620603;47;20038;-65
2022/04/15 19:30:18;;;;;;;7.93;4.60;;;;;;;13.58;52.16;99789.03;2620928;47;20038;-65
2022/04/15 19:32:48;;;;;;;5.00;4.45;;;;;;;13.56;52.14;99804.34;2621380;54;20155;-65
2022/04/15 19:35:17;;;;;;;4.80;4.18;;;;;;;13.49;52.16;99808.75;2621845;54;20038;-65
2022/04/15 19:37:47;;;;;;;6.50;3.67;;;;;;;13.41;51.58;99804.38;2621739;54;20043;-64
2022/04/15 19:40:17;;;;;;;6.07;3.72;;;;;;;13.30;51.89;99823.44;2621174;54;20029;-64
2022/04/15 19:42:49;;;;;;;3.80;3.30;;;;;;;13.17;52.20;99826.72;2621046;39;20411;-63
2022/04/15 19:45:19;;;;;;;4.80;3.55;;;;;;;13.11;51.82;99827.47;2621948;54;20041;-65
2022/04/15 19:47:49;;;;;;;4.35;3.75;;;;;;;13.05;51.65;99823.69;2622046;54;20558;-66
2022/04/15 19:50:18;;;;;;;7.03;3.08;;;;;;;13.00;51.99;99834.03;2621624;47;20023;-65
2022/04/15 19:52:53;;;;;;;5.80;3.83;;;;;;;12.92;52.23;99834.13;2621604;47;20038;-64
2022/04/15 19:55:23;;;;;;;4.10;3.53;;;;;;;12.84;52.63;99837.69;2621472;54;20038;-67
2022/04/15 20:01:11;;;;;;;3.67;3.22;;;;;;;12.66;52.94;99842.53;2621780;54;20061;-65
2022/04/15 20:03:41;;;;;;;5.32;3.60;;;;;;;12.63;52.78;99850.84;2620846;46;20042;-63
2022/04/15 20:06:14;;;;;;;3.75;3.35;;;;;;;12.56;52.76;99842.78;2621002;39;20407;-65
2022/04/15 20:08:44;;;;;;;3.75;3.05;;;;;;;12.54;52.40;99852.75;2621049;54;20572;-64
2022/04/15 20:11:15;;;;;;;3.75;3.40;;;;;;;12.52;52.62;99854.75;2621729;54;20046;-65
2022/04/15 20:13:48;;;;;;;4.38;3.30;;;;;;;12.46;52.57;99855.47;2621451;54;20550;-66
2022/04/15 20:16:18;;;;;;;3.92;3.47;;;;;;;12.45;53.10;99861.78;2621483;54;20031;-65
2022/04/15 20:18:48;;;;;;;3.70;3.38;;;;;;;12.47;52.92;99867.72;2621118;39;20437;-64
2022/04/15 20:21:17;;;;;;;3.50;2.90;;;;;;;12.39;52.86;99865.97;2621583;54;20031;-64
2022/04/15 20:23:50;;;;;;;3.85;3.40;;;;;;;12.34;53.01;99873.63;2621186;39;20418;-64
2022/04/15 20:26:20;;;;;;;21.77;14.55;;;;;;;12.25;53.34;99877.34;2621873;54;20130;-65
2022/04/15 20:28:54;;;;;;;6.78;4.97;;;;;;;12.19;53.19;99880.69;2620609;47;20054;-66
2022/04/15 20:31:24;;;;;;;5.55;4.25;;;;;;;12.09;53.50;99880.13;2621450;54;20079;-67
2022/04/15 20:33:54;;;;;;;5.40;4.28;;;;;;;12.04;53.88;99882.47;2622162;54;20026;-64
2022/04/15 20:36:24;;;;;;;4.60;3.55;;;;;;;11.97;53.79;99886.81;2621377;39;20411;-64
2022/04/15 20:38:54;;;;;;;3.92;3.25;;;;;;;11.92;53.74;99886.50;2620889;54;20037;-65
2022/04/15 20:41:24;;;;;;;4.35;3.95;;;;;;;11.84;53.88;99898.81;2622053;54;20038;-64
2022/04/15 20:43:56;;;;;;;5.10;3.50;;;;;;;11.81;53.65;99893.84;2620883;54;20034;-65
2022/04/15 20:46:26;;;;;;;3.75;3.30;;;;;;;11.72;53.93;99902.81;2620796;54;20027;-64
2022/04/15 20:51:39;;;;;;;3.65;3.35;;;;;;;11.61;54.34;99901.38;2622262;47;20022;-66
2022/04/15 20:54:09;;;;;;;3.55;3.25;;;;;;;11.59;54.71;99900.75;2621601;54;20033;-63
2022/04/15 20:56:38;;;;;;;3.53;2.90;;;;;;;11.53;54.56;99900.59;2622588;54;20586;-64
2022/04/15 20:59:11;;;;;;;4.25;3.13;;;;;;;11.50;54.93;99904.41;2621326;47;20027;-65
2022/04/15 21:01:40;;;;;;;4.25;2.97;;;;;;;11.48;54.50;99905.59;2622424;54;20569;-66
2022/04/15 21:04:10;;;;;;;5.28;3.83;;;;;;;11.43;54.89;99911.41;2621814;47;20041;-65
2022/04/15 21:06:40;;;;;;;4.18;3.88;;;;;;;11.31;54.81;99908.28;2622206;54;20045;-66
2022/04/15 21:09:10;;;;;;;3.92;3.45;;;;;;;11.29;55.46;99914.72;2622240;54;20042;-65
2022/04/15 21:11:41;;;;;;;3.72;3.42;;;;;;;11.26;55.31;99915.88;2622448;54;20562;-64
2022/04/15 21:14:14;;;;;;;4.22;3.20;;;;;;;11.26;55.20;99923.81;2622964;54;20027;-65
2022/04/15 21:16:44;;;;;;;3.90;3.50;;;;;;;11.31;55.24;99918.88;2621999;47;20113;-66
2022/04/15 21:19:13;;;;;;;3.25;2.75;;;;;;;11.18;55.33;99910.63;2621604;54;20026;-66
2022/04/15 21:21:43;;;;;;;4.40;3.25;;;;;;;11.14;55.33;99920.75;2621498;54;20057;-65
2022/04/15 21:24:13;;;;;;;4.70;3.53;;;;;;;11.06;55.29;99915.47;2621989;54;20547;-63
2022/04/15 21:26:42;;;;;;;4.85;3.63;;;;;;;11.04;55.39;99919.25;2621814;47;20031;-65
2022/04/15 21:29:15;;;;;;;4.00;3.60;;;;;;;10.96;55.42;99913.97;2622697;39;20499;-66
2022/04/15 21:31:45;;;;;;;5.03;3.40;;;;;;;10.90;55.66;99921.59;2624583;39;20439;-65
2022/04/15 21:34:14;;;;;;;3.38;3.08;;;;;;;10.85;55.98;99915.97;2622356;46;20042;-65
2022/04/15 21:36:44;;;;;;;3.53;3.08;;;;;;;10.85;55.94;99920.44;2622455;54;20019;-65
2022/04/15 21:39:16;;;;;;;4.43;3.50;;;;;;;10.83;55.96;99915.31;2622440;54;20034;-63
2022/04/15 21:41:46;;;;;;;4.13;3.72;;;;;;;10.80;56.24;99917.47;2623338;54;20551;-64
2022/04/15 21:44:19;;;;;;;3.75;3.40;;;;;;;10.76;55.92;99918.78;2623799;54;20044;-65
2022/04/15 21:46:49;;;;;;;4.30;3.15;;;;;;;10.70;56.23;99922.94;2622494;54;20038;-66
2022/04/15 21:49:21;;;;;;;4.47;3.63;;;;;;;10.64;56.39;99923.59;2619899;47;20555;-63
2022/04/15 21:54:42;;;;;;;4.00;3.60;;;;;;;10.56;56.75;99939.44;2622446;54;20049;-63
2022/04/15 21:57:12;;;;;;;4.50;3.70;;;;;;;10.57;56.80;99941.09;2621478;54;20034;-63
2022/04/15 21:59:45;;;;;;;7.47;4.00;;;;;;;10.56;56.54;99937.63;2622750;54;20026;-66
2022/04/15 22:02:17;;;;;;;4.90;3.78;;;;;;;10.55;56.66;99943.09;2597342;54;20061;-66
2022/04/15 22:04:48;;;;;;;3.92;3.53;;;;;;;10.53;56.53;99950.34;2622703;54;20070;-63
2022/04/15 22:07:18;;;;;;;4.45;3.63;;;;;;;10.45;56.84;99947.69;2622159;54;20499;-65
2022/04/15 22:09:50;;;;;;;4.00;3.22;;;;;;;10.47;56.82;99946.56;2622886;54;20037;-63
2022/04/15 22:12:20;;;;;;;4.10;3.50;;;;;;;10.54;56.91;99947.56;2622860;54;20128;-64
2022/04/15 22:14:53;;;;;;;3.60;3.30;;;;;;;10.50;56.96;99946.25;2621855;54;20090;-64
2022/04/15 22:17:24;;;;;;;3.78;3.47;;;;;;;10.40;56.82;99951.66;2619818;54;20038;-68
2022/04/15 22:19:54;;;;;;;5.70;3.88;;;;;;;10.39;57.23;99946.56;2619270;54;20082;-67
2022/04/15 22:22:25;;;;;;;4.13;3.75;;;;;;;10.35;56.88;99943.41;2618212;47;20034;-67
2022/04/15 22:24:54;;;;;;;3.92;3.40;;;;;;;10.27;57.50;99939.91;2618767;54;20046;-65
2022/04/15 22:27:24;;;;;;;4.90;3.33;;;;;;;10.24;57.61;99940.22;2618249;54;20034;-65
2022/04/15 22:29:58;;;;;;;3.58;3.28;;;;;;;10.22;57.67;99943.03;2618018;47;20046;-65
2022/04/15 22:32:28;;;;;;;4.70;3.10;;;;;;;10.20;57.77;99942.34;2618747;46;20058;-66
2022/04/15 22:34:57;;;;;;;3.65;3.35;;;;;;;10.12;57.78;99937.91;2617816;47;20027;-66
2022/04/15 22:37:27;;;;;;;3.90;3.13;;;;;;;10.05;58.04;99946.63;2617794;39;20443;-65
2022/04/15 22:39:57;;;;;;;3.97;3.60;;;;;;;10.01;57.93;99945.28;2618242;47;20041;-66
2022/04/15 22:42:27;;;;;;;3.10;2.80;;;;;;;9.99;58.26;99942.78;2618867;54;20082;-66
2022/04/15 22:45:00;;;;;;;3.15;2.85;;;;;;;9.95;58.51;99954.66;2617861;54;20046;-66
2022/04/15 22:47:37;;;;;;;3.72;3.42;;;;;;;9.93;58.24;99943.44;2617819;47;20030;-66
2022/04/15 22:50:09;;;;;;;3.28;2.97;;;;;;;9.88;58.42;99949.22;2618394;47;20539;-66
2022/04/15 22:52:39;;;;;;;3.80;3.40;;;;;;;9.88;58.40;99953.69;2619095;47;20042;-66
2022/04/15 22:57:56;;;;;;;;;;;;;;;9.81;58.95;99940.28;2622280;47;20166;-66
2022/04/15 23:00:34;;;;;;;4.00;3.63;;;;;;;9.77;58.79;99941.56;2623082;54;20464;-64
2022/04/15 23:03:04;;;;;;;5.20;3.78;;;;;;;9.78;58.97;99945.88;2622948;54;20030;-65
2022/04/15 23:05:34;;;;;;;4.00;3.65;;;;;;;9.84;58.55;99947.06;2622033;47;20126;-66
2022/04/15 23:08:04;;;;;;;4.68;4.10;;;;;;;9.87;58.58;99944.06;2621958;54;20078;-65
2022/04/15 23:10:34;;;;;;;6.25;4.70;;;;;;;9.89;58.88;99942.94;2622520;54;20038;-66
2022/04/15 23:13:05;;;;;;;6.28;4.15;;;;;;;9.84;58.77;99939.97;2622486;54;20030;-64
2022/04/15 23:15:38;;;;;;;4.93;4.07;;;;;;;9.90;58.40;99941.94;2621698;47;20046;-64
2022/04/15 23:18:10;;;;;;;4.80;4.40;;;;;;;9.92;58.25;99936.53;2621571;47;20038;-65
2022/04/15 23:20:40;;;;;;;4.13;3.60;;;;;;;9.94;58.85;99937.19;2621941;51;20167;-65
2022/04/15 23:23:10;;;;;;;4.78;3.88;;;;;;;9.97;58.26;99944.78;2621710;54;20075;-66
2022/04/15 23:25:41;;;;;;;4.30;3.90;;;;;;;9.83;58.50;99942.75;2623061;39;20438;-66
2022/04/15 23:28:11;;;;;;;4.63;3.92;;;;;;;9.67;59.20;99946.16;2621368;39;20435;-66
2022/04/15 23:30:43;;;;;;;4.75;4.28;;;;;;;9.64;58.97;99944.66;2621679;47;20027;-67
2022/04/15 23:33:13;;;;;;;3.97;3.67;;;;;;;9.56;59.51;99952.56;2621839;39;20432;-66
2022/04/15 23:35:43;;;;;;;4.50;4.10;;;;;;;9.54;59.72;99956.31;2618405;54;20038;-66
2022/04/15 23:38:13;;;;;;;4.97;4.30;;;;;;;9.51;59.86;99949.56;2617343;47;20551;-66
2022/04/15 23:40:44;;;;;;;4.57;4.18;;;;;;;9.52;59.59;99959.13;2618582;54;20058;-65
2022/04/15 23:43:14;;;;;;;4.72;4.30;;;;;;;9.42;59.94;99959.22;2618379;54;20026;-67
2022/04/15 23:48:38;;;;;;;5.03;4.10;;;;;;;9.32;60.40;99966.44;2618599;39;20427;-66
2022/04/15 23:51:09;;;;;;;6.65;4.43;;;;;;;9.35;60.40;99963.50;2618210;54;20031;-66
2022/04/15 23:53:40;;;;;;;4.95;4.50;;;;;;;9.34;60.55;99961.81;2618100;54;20065;-66
2022/04/15 23:56:09;;;;;;;4.78;4.38;;;;;;;9.31;60.24;99964.78;2618477;54;20034;-65
2022/04/15 23:58:39;;;;;;;5.82;4.75;;;;;;;9.26;60.33;99959.13;2617832;54;20045;-66
